Time;durP1;ratioP1;P1;durP2;ratioP2;P2;SDS_P1;SDS_P2;PMS_P1;PMS_P2;Temp;Humidity;BMP_temperature;BMP_pressure;BME280_temperature;BME280_humidity;BME280_pressure;Samples;Min_cycle;Max_cycle;Signal;HPM_P1;HPM_P2
2023/10/27 00:00:45;;;;;;;2.88;1.30;;;;;;;8.63;100.00;99481.00;6036633;23;20018;-78
2023/10/27 00:03:13;;;;;;;3.00;1.30;;;;;;;8.66;100.00;99477.75;6062232;23;20021;-79
2023/10/27 00:05:39;;;;;;;3.03;1.80;;;;;;;8.60;100.00;99471.72;6085417;23;20019;-79
2023/10/27 00:08:05;;;;;;;3.72;1.42;;;;;;;8.63;100.00;99478.34;6110408;23;20467;-77
2023/10/27 00:10:31;;;;;;;2.67;2.05;;;;;;;8.62;100.00;99471.44;6059733;23;20877;-80
2023/10/27 00:12:57;;;;;;;1.83;1.15;;;;;;;8.63;100.00;99478.34;6038214;23;20097;-79
2023/10/27 00:15:23;;;;;;;1.80;1.13;;;;;;;8.64;100.00;99486.06;6061845;23;20125;-74
2023/10/27 00:17:49;;;;;;;4.28;1.27;;;;;;;8.65;100.00;99481.50;6038294;23;20029;-78
2023/10/27 00:20:15;;;;;;;2.95;1.23;;;;;;;8.64;100.00;99480.72;6038711;23;20026;-78
2023/10/27 00:22:41;;;;;;;4.20;1.45;;;;;;;8.64;100.00;99474.59;6085190;23;20014;-79
2023/10/27 00:25:07;;;;;;;5.88;1.38;;;;;;;8.66;100.00;99472.44;6085351;23;20053;-76
2023/10/27 00:27:33;;;;;;;;;;;;;;;8.65;100.00;99482.31;6014224;23;20614;-74
2023/10/27 00:29:59;;;;;;;2.90;1.50;;;;;;;8.66;100.00;99475.09;6037675;23;20000;-78
2023/10/27 00:32:24;;;;;;;1.98;1.10;;;;;;;8.64;100.00;99485.28;6063032;23;20025;-75
2023/10/27 00:34:50;;;;;;;2.25;1.40;;;;;;;8.66;100.00;99493.78;6037715;23;20022;-76
2023/10/27 00:37:17;;;;;;;3.10;1.50;;;;;;;8.63;100.00;99491.69;6037153;23;20047;-75
2023/10/27 00:39:44;;;;;;;2.30;1.83;;;;;;;8.65;100.00;99502.88;6037516;23;20153;-77
2023/10/27 00:42:10;;;;;;;3.08;1.40;;;;;;;8.66;100.00;99493.78;6037406;23;20050;-77
2023/10/27 00:44:35;;;;;;;2.55;1.65;;;;;;;8.67;100.00;99495.34;6038603;23;20022;-77
2023/10/27 00:47:02;;;;;;;2.35;1.35;;;;;;;8.68;100.00;99491.63;6060919;23;20014;-77
2023/10/27 00:49:28;;;;;;;2.63;1.27;;;;;;;8.67;100.00;99484.69;6036767;23;20018;-75
2023/10/27 00:51:54;;;;;;;1.70;1.20;;;;;;;8.65;100.00;99481.50;6013198;23;20134;-79
2023/10/27 00:54:21;;;;;;;2.10;1.27;;;;;;;8.65;100.00;99484.19;6037687;23;20025;-79
2023/10/27 00:56:47;;;;;;;;;;;;;;;8.66;100.00;99483.09;6012613;23;20857;-76
2023/10/27 00:59:14;;;;;;;2.20;1.30;;;;;;;8.64;100.00;99479.94;6060567;23;19913;-76
2023/10/27 01:01:42;;;;;;;2.40;1.58;;;;;;;8.65;100.00;99476.19;6059976;23;20472;-77
2023/10/27 01:04:08;;;;;;;3.33;1.40;;;;;;;8.65;100.00;99468.97;6013966;23;20041;-77
2023/10/27 01:06:35;;;;;;;1.90;1.60;;;;;;;8.63;100.00;99462.34;6059199;23;20022;-77
2023/10/27 01:09:00;;;;;;;2.63;1.60;;;;;;;8.65;100.00;99454.81;6060266;23;20018;-78
2023/10/27 01:11:26;;;;;;;3.90;1.15;;;;;;;8.66;100.00;99456.41;6059881;23;20022;-77
2023/10/27 01:13:55;;;;;;;2.35;1.30;;;;;;;8.64;100.00;99442.56;6038389;23;20022;-77
2023/10/27 01:16:22;;;;;;;2.10;1.20;;;;;;;8.64;100.00;99443.38;6060958;23;20026;-76
2023/10/27 01:18:48;;;;;;;3.05;1.80;;;;;;;8.62;100.00;99442.06;6061159;23;20015;-76
2023/10/27 01:21:14;;;;;;;1.85;1.35;;;;;;;8.61;100.00;99437.81;6036247;23;20074;-78
2023/10/27 01:23:40;;;;;;;2.05;1.52;;;;;;;8.57;100.00;99432.25;6013964;23;20022;-78
2023/10/27 01:26:05;;;;;;;3.08;1.23;;;;;;;8.60;100.00;99437.03;6037338;23;20074;-75
2023/10/27 01:28:31;;;;;;;2.20;1.42;;;;;;;8.60;100.00;99433.53;6061116;23;20085;-77
2023/10/27 01:30:57;;;;;;;2.33;1.30;;;;;;;8.62;100.00;99428.72;6062875;23;20025;-79
2023/10/27 01:33:23;;;;;;;2.85;1.30;;;;;;;8.62;100.00;99431.41;6063890;23;20022;-78
2023/10/27 01:35:54;;;;;;;2.20;1.60;;;;;;;8.61;100.00;99429.81;6062278;23;20014;-80
2023/10/27 01:38:20;;;;;;;3.35;1.20;;;;;;;8.58;100.00;99428.50;6039504;23;20018;-77
2023/10/27 01:40:46;;;;;;;;;;;;;;;8.62;100.00;99434.84;6038686;23;20088;-79
2023/10/27 01:43:12;;;;;;;2.00;1.20;;;;;;;8.62;100.00;99426.06;6039439;23;20008;-78
2023/10/27 01:45:37;;;;;;;3.45;1.50;;;;;;;8.61;100.00;99433.28;6038407;23;20124;-76
2023/10/27 01:48:03;;;;;;;2.35;1.48;;;;;;;8.56;100.00;99425.34;6061815;23;20030;-75
2023/10/27 01:50:29;;;;;;;3.47;1.15;;;;;;;8.61;100.00;99422.59;6062688;23;20371;-79
2023/10/27 01:52:55;;;;;;;4.15;1.10;;;;;;;8.60;100.00;99414.84;6064298;23;20088;-76
2023/10/27 01:55:24;;;;;;;2.00;1.00;;;;;;;8.60;100.00;99418.34;6087199;23;20085;-76
2023/10/27 01:57:50;;;;;;;2.50;1.10;;;;;;;8.63;100.00;99420.44;6039645;23;20048;-79
2023/10/27 02:00:17;;;;;;;5.60;1.30;;;;;;;8.63;100.00;99416.97;6038460;23;20014;-77
2023/10/27 02:02:42;;;;;;;1.65;0.93;;;;;;;8.64;100.00;99421.22;6038017;23;20070;-78
2023/10/27 02:05:09;;;;;;;2.13;1.15;;;;;;;8.63;100.00;99414.28;6015116;23;20025;-79
2023/10/27 02:07:35;;;;;;;3.05;0.93;;;;;;;8.62;100.00;99410.06;6064502;23;20060;-75
2023/10/27 02:10:01;;;;;;;1.50;0.90;;;;;;;8.62;100.00;99421.50;6062254;23;20034;-77
2023/10/27 02:12:27;;;;;;;2.78;0.90;;;;;;;8.64;100.00;99421.22;6088620;23;20015;-76
2023/10/27 02:14:53;;;;;;;1.63;1.00;;;;;;;8.59;100.00;99418.63;6066381;23;20022;-77
2023/10/27 02:17:18;;;;;;;2.33;0.90;;;;;;;8.62;100.00;99423.38;6064463;23;20022;-77
2023/10/27 02:19:44;;;;;;;2.42;1.38;;;;;;;8.61;100.00;99422.59;6065378;23;20022;-77
2023/10/27 02:22:10;;;;;;;;;;;;;;;8.62;100.00;99418.06;6063517;23;20441;-79
2023/10/27 02:24:39;;;;;;;2.83;1.17;;;;;;;8.61;100.00;99427.16;6088371;23;19915;-77
2023/10/27 02:27:05;;;;;;;1.52;0.95;;;;;;;8.61;100.00;99424.47;6086921;23;20018;-78
2023/10/27 02:29:31;;;;;;;2.40;0.95;;;;;;;8.61;100.00;99427.94;6064938;23;20021;-79
2023/10/27 02:31:57;;;;;;;1.92;1.00;;;;;;;8.62;100.00;99423.38;6086976;23;20018;-78
2023/10/27 02:34:24;;;;;;;1.83;1.00;;;;;;;8.58;100.00;99417.03;6042320;23;20045;-77
2023/10/27 02:36:51;;;;;;;2.30;1.42;;;;;;;8.58;100.00;99419.69;6108874;23;20046;-77
2023/10/27 02:39:17;;;;;;;2.38;1.10;;;;;;;8.60;100.00;99425.53;6088667;23;20011;-78
2023/10/27 02:41:43;;;;;;;3.47;1.52;;;;;;;8.61;100.00;99419.13;6086110;23;20022;-78
2023/10/27 02:44:12;;;;;;;1.80;1.10;;;;;;;8.60;100.00;99421.03;6087758;23;20022;-78
2023/10/27 02:46:38;;;;;;;2.20;1.13;;;;;;;8.60;100.00;99410.34;6063529;23;20015;-79
2023/10/27 02:49:04;;;;;;;2.40;1.10;;;;;;;8.60;100.00;99420.19;6064134;23;20453;-78
2023/10/27 02:51:31;;;;;;;2.33;1.30;;;;;;;8.61;100.00;99413.81;6064725;23;20018;-77
2023/10/27 02:54:02;;;;;;;;;;;;;;;8.59;100.00;99413.28;6088863;23;20028;-75
2023/10/27 02:56:28;;;;;;;1.95;1.00;;;;;;;8.56;100.00;99424.53;6113172;23;20239;-77
2023/10/27 02:58:54;;;;;;;2.83;1.35;;;;;;;8.54;100.00;99424.03;6064949;23;20120;-79
2023/10/27 03:01:20;;;;;;;2.72;1.40;;;;;;;8.57;100.00;99434.91;6086526;23;20015;-78
2023/10/27 03:03:46;;;;;;;2.00;1.23;;;;;;;8.59;100.00;99429.28;6086547;23;20074;-78
2023/10/27 03:06:12;;;;;;;2.38;1.00;;;;;;;8.60;100.00;99436.22;6040224;23;20046;-79
2023/10/27 03:08:39;;;;;;;2.67;1.35;;;;;;;8.56;100.00;99433.34;6066718;23;20475;-76
2023/10/27 03:11:06;;;;;;;2.40;0.95;;;;;;;8.54;100.00;99427.50;6066841;23;20014;-76
2023/10/27 03:13:33;;;;;;;2.72;1.30;;;;;;;8.55;100.00;99444.31;6090834;23;20060;-78
2023/10/27 03:16:00;;;;;;;2.38;1.13;;;;;;;8.57;100.00;99431.47;6091212;23;20100;-79
2023/10/27 03:18:27;;;;;;;3.50;1.08;;;;;;;8.54;100.00;99432.06;6093429;23;20073;-78
2023/10/27 03:21:00;;;;;;;1.95;1.40;;;;;;;8.54;100.00;99421.38;6067708;23;20013;-76
2023/10/27 03:23:27;;;;;;;2.70;0.88;;;;;;;8.52;100.00;99423.50;6069473;23;20048;-79
2023/10/27 03:25:54;;;;;;;2.05;1.15;;;;;;;8.51;100.00;99421.94;6067274;23;20353;-78
2023/10/27 03:28:20;;;;;;;3.03;1.17;;;;;;;8.51;100.00;99425.41;6092354;23;20453;-78
2023/10/27 03:30:50;;;;;;;1.60;1.23;;;;;;;8.51;100.00;99428.06;6116175;23;20025;-78
2023/10/27 03:33:17;;;;;;;2.00;0.80;;;;;;;8.51;100.00;99432.59;6093260;23;20130;-76
2023/10/27 03:35:46;;;;;;;3.05;1.52;;;;;;;8.50;100.00;99420.34;6092260;23;20090;-76
2023/10/27 03:38:13;;;;;;;2.05;1.20;;;;;;;8.49;100.00;99419.56;6069098;23;20010;-79
2023/10/27 03:40:44;;;;;;;2.53;1.42;;;;;;;8.45;100.00;99419.31;6115968;23;20445;-78
2023/10/27 03:43:13;;;;;;;1.30;0.80;;;;;;;8.44;100.00;99415.06;6068852;23;20022;-80
2023/10/27 03:45:38;;;;;;;2.05;1.23;;;;;;;8.44;100.00;99423.06;6069474;23;20017;-75
2023/10/27 03:48:05;;;;;;;1.55;0.88;;;;;;;8.45;100.00;99431.88;6094276;23;20027;-78
2023/10/27 03:50:31;;;;;;;4.00;1.13;;;;;;;8.44;100.00;99427.63;6092716;23;20423;-77
2023/10/27 03:52:57;;;;;;;2.33;1.20;;;;;;;8.42;100.00;99435.13;6044561;23;20040;-78
2023/10/27 03:55:22;;;;;;;2.13;1.08;;;;;;;8.42;100.00;99435.13;6068599;23;20049;-78
2023/10/27 03:57:48;;;;;;;2.80;1.30;;;;;;;8.42;100.00;99435.91;6043903;23;20017;-76
2023/10/27 04:00:15;;;;;;;2.25;1.40;;;;;;;8.41;100.00;99439.66;6092705;23;20037;-75
2023/10/27 04:02:43;;;;;;;3.67;0.95;;;;;;;8.38;100.00;99429.56;6117434;23;20010;-75
2023/10/27 04:05:09;;;;;;;2.05;1.23;;;;;;;8.37;100.00;99427.97;6068053;23;20024;-74
2023/10/27 04:07:35;;;;;;;3.05;0.80;;;;;;;8.36;100.00;99431.72;6069762;23;20021;-77
2023/10/27 04:10:00;;;;;;;2.33;1.15;;;;;;;8.36;100.00;99428.28;6086992;23;20186;-76
2023/10/27 04:12:26;;;;;;;2.42;1.25;;;;;;;8.31;100.00;99423.75;6086342;23;20006;-78
2023/10/27 04:14:52;;;;;;;2.90;1.40;;;;;;;8.27;100.00;99425.41;6064279;23;20097;-77
2023/10/27 04:17:17;;;;;;;1.77;0.90;;;;;;;8.26;100.00;99420.34;6062955;23;20499;-75
2023/10/27 04:19:44;;;;;;;3.55;1.20;;;;;;;8.28;100.00;99424.34;6086567;23;20029;-79
2023/10/27 04:22:11;;;;;;;3.63;0.90;;;;;;;8.26;100.00;99426.47;6088811;23;20014;-77
2023/10/27 04:24:37;;;;;;;3.15;1.30;;;;;;;8.24;100.00;99428.66;6064042;23;20342;-78
2023/10/27 04:27:03;;;;;;;2.60;1.35;;;;;;;8.24;100.00;99433.97;6062923;23;20021;-76
2023/10/27 04:29:31;;;;;;;3.08;1.40;;;;;;;8.25;100.00;99430.22;6113335;23;20014;-78
2023/10/27 04:31:58;;;;;;;3.05;1.70;;;;;;;8.25;100.00;99427.56;6087832;23;20536;-77
2023/10/27 04:34:24;;;;;;;2.90;0.90;;;;;;;8.24;100.00;99436.66;6066475;23;20042;-72
2023/10/27 04:36:54;;;;;;;2.35;1.20;;;;;;;8.24;100.00;99428.66;6114503;23;20443;-73
2023/10/27 04:39:21;;;;;;;3.80;1.38;;;;;;;8.20;100.00;99433.78;6087007;23;20022;-76
2023/10/27 04:42:18;;;;;;;;;;;;;;;8.22;100.00;99436.16;6044575;23;20018;-74
2023/10/27 04:44:47;;;;;;;3.67;1.25;;;;;;;8.20;100.00;99435.66;6092782;23;20350;-73
2023/10/27 04:47:13;;;;;;;3.10;1.00;;;;;;;8.17;100.00;99430.88;6069248;23;20014;-76
2023/10/27 04:49:41;;;;;;;2.90;0.90;;;;;;;8.16;100.00;99431.94;6094153;23;20429;-77
2023/10/27 04:52:07;;;;;;;3.30;1.20;;;;;;;8.15;100.00;99430.38;6118286;23;20018;-78
2023/10/27 04:54:36;;;;;;;2.40;1.10;;;;;;;8.10;100.00;99430.41;6069729;23;20014;-78
2023/10/27 04:57:05;;;;;;;2.30;1.13;;;;;;;8.11;100.00;99440.78;6071128;23;20022;-78
2023/10/27 04:59:34;;;;;;;3.03;1.10;;;;;;;8.11;100.00;99440.00;6094954;23;20018;-76
2023/10/27 05:02:00;;;;;;;3.25;1.15;;;;;;;8.07;100.00;99429.13;6093878;23;20010;-78
2023/10/27 05:04:28;;;;;;;1.95;0.90;;;;;;;8.09;100.00;99428.84;6096053;23;20022;-76
2023/10/27 05:06:54;;;;;;;2.08;1.10;;;;;;;8.10;100.00;99433.09;6095958;23;20161;-77
2023/10/27 05:09:20;;;;;;;1.80;0.90;;;;;;;8.10;100.00;99431.22;6076927;23;20117;-75
2023/10/27 05:11:47;;;;;;;3.03;1.08;;;;;;;8.10;100.00;99433.88;6099949;23;20442;-78
2023/10/27 05:14:13;;;;;;;2.72;1.10;;;;;;;8.08;100.00;99427.25;6125168;23;20417;-76
2023/10/27 05:16:39;;;;;;;;;;;;;;;8.09;100.00;99432.28;6101325;23;20479;-76
2023/10/27 05:19:04;;;;;;;2.95;1.02;;;;;;;8.07;100.00;99431.78;6100787;23;20198;-73
2023/10/27 05:21:30;;;;;;;3.08;1.10;;;;;;;8.02;100.00;99434.50;6074884;23;20092;-76
2023/10/27 05:23:57;;;;;;;2.78;1.40;;;;;;;8.02;100.00;99417.72;6101220;23;20021;-74
2023/10/27 05:26:24;;;;;;;5.03;1.20;;;;;;;8.01;100.00;99429.47;6076052;23;20014;-74
2023/10/27 05:28:52;;;;;;;3.60;1.17;;;;;;;8.00;100.00;99430.56;6100188;23;20113;-73
2023/10/27 05:31:18;;;;;;;3.22;1.40;;;;;;;8.01;100.00;99426.81;6051760;23;20010;-74
2023/10/27 05:33:44;;;;;;;4.72;1.70;;;;;;;7.99;100.00;99427.06;6098508;23;20022;-73
2023/10/27 05:36:10;;;;;;;4.28;1.58;;;;;;;7.98;100.00;99435.34;6119835;23;20663;-73
2023/10/27 05:38:37;;;;;;;5.10;1.40;;;;;;;7.99;100.00;99436.94;6099676;23;20017;-73
2023/10/27 05:41:03;;;;;;;4.78;1.60;;;;;;;7.98;100.00;99433.47;6097644;23;20535;-75
2023/10/27 05:43:29;;;;;;;;;;;;;;;7.98;100.00;99438.03;6099335;23;20017;-72
2023/10/27 05:45:55;;;;;;;3.47;1.67;;;;;;;7.98;100.00;99430.03;6098887;23;19932;-73
2023/10/27 05:48:20;;;;;;;2.97;1.33;;;;;;;7.93;100.00;99434.34;6098799;23;20032;-72
2023/10/27 05:50:46;;;;;;;4.18;1.80;;;;;;;7.92;100.00;99432.75;6074699;23;20017;-73
2023/10/27 05:53:12;;;;;;;;;;;;;;;7.94;100.00;99433.25;6099760;23;20028;-73
2023/10/27 05:55:41;;;;;;;4.10;1.30;;;;;;;7.94;100.00;99430.59;6074423;23;19916;-77
2023/10/27 05:58:07;;;;;;;4.22;1.85;;;;;;;7.92;100.00;99438.09;6070559;23;20025;-74
2023/10/27 06:00:33;;;;;;;4.13;1.67;;;;;;;7.93;100.00;99433.56;6095741;23;20013;-75
2023/10/27 06:03:00;;;;;;;4.15;1.88;;;;;;;7.91;100.00;99433.81;6074899;23;20384;-73
2023/10/27 06:05:26;;;;;;;3.22;1.50;;;;;;;7.91;100.00;99431.16;6051672;23;20021;-75
2023/10/27 06:07:51;;;;;;;3.42;1.98;;;;;;;7.90;100.00;99434.91;6074971;23;20018;-74
2023/10/27 06:10:18;;;;;;;6.35;1.85;;;;;;;7.92;100.00;99432.75;6124321;23;20511;-75
2023/10/27 06:12:44;;;;;;;4.65;1.88;;;;;;;7.91;100.00;99433.81;6099306;23;20013;-75
2023/10/27 06:15:09;;;;;;;4.53;2.30;;;;;;;7.88;100.00;99431.72;6075518;23;20021;-76
2023/10/27 06:17:35;;;;;;;3.47;1.65;;;;;;;7.91;100.00;99441.81;6079083;23;20014;-76
2023/10/27 06:20:03;;;;;;;3.38;1.90;;;;;;;7.92;100.00;99432.75;6099671;23;20018;-74
2023/10/27 06:22:30;;;;;;;5.72;2.10;;;;;;;7.94;100.00;99441.25;6075210;23;20045;-77
2023/10/27 06:24:56;;;;;;;;;;;;;;;7.96;100.00;99442.84;6099152;23;20057;-74
2023/10/27 06:27:23;;;;;;;4.13;1.60;;;;;;;7.93;100.00;99444.22;6098205;23;19912;-75
2023/10/27 06:29:48;;;;;;;;;;;;;;;7.93;100.00;99442.34;6098539;23;20476;-75
2023/10/27 06:32:14;;;;;;;4.28;2.00;;;;;;;7.91;100.00;99441.81;6091885;23;20128;-75
2023/10/27 06:34:40;;;;;;;4.40;1.67;;;;;;;7.92;100.00;99435.44;6096782;23;20021;-77
2023/10/27 06:37:06;;;;;;;4.38;1.95;;;;;;;7.92;100.00;99435.44;6097854;23;20042;-74
2023/10/27 06:39:32;;;;;;;4.13;1.90;;;;;;;7.93;100.00;99438.88;6075415;23;20018;-75
2023/10/27 06:41:58;;;;;;;3.08;1.65;;;;;;;7.96;100.00;99442.84;6049540;23;20022;-75
2023/10/27 06:44:25;;;;;;;5.15;1.60;;;;;;;7.97;100.00;99441.78;6074607;23;20134;-74
2023/10/27 06:46:51;;;;;;;2.58;1.27;;;;;;;7.96;100.00;99438.31;6074286;23;20049;-78
2023/10/27 06:49:17;;;;;;;4.45;1.70;;;;;;;7.94;100.00;99443.13;6099368;23;20010;-74
2023/10/27 06:51:42;;;;;;;3.33;1.60;;;;;;;7.94;100.00;99438.59;6122374;23;20042;-77
2023/10/27 06:54:10;;;;;;;3.13;2.00;;;;;;;7.95;100.00;99444.72;6098473;23;20018;-74
2023/10/27 06:56:35;;;;;;;4.18;1.58;;;;;;;7.95;100.00;99439.38;6074022;23;20080;-76
2023/10/27 06:59:02;;;;;;;3.65;2.17;;;;;;;7.98;100.00;99441.47;6123558;23;20021;-78
2023/10/27 07:01:29;;;;;;;4.70;1.83;;;;;;;7.96;100.00;99437.50;6073671;23;20104;-76
2023/10/27 07:03:56;;;;;;;4.45;1.90;;;;;;;7.98;100.00;99435.34;6097542;23;20036;-77
2023/10/27 07:06:22;;;;;;;3.83;1.90;;;;;;;7.93;100.00;99434.34;6072619;23;20030;-74
2023/10/27 07:08:48;;;;;;;3.15;1.60;;;;;;;7.97;100.00;99436.44;6072586;23;20017;-75
2023/10/27 07:11:14;;;;;;;3.38;2.03;;;;;;;7.99;100.00;99445.72;6069154;23;20014;-77
2023/10/27 07:13:39;;;;;;;4.85;1.67;;;;;;;7.96;100.00;99440.19;6047716;23;20018;-74
2023/10/27 07:16:05;;;;;;;3.75;2.08;;;;;;;7.96;100.00;99438.31;6072337;23;20018;-75
2023/10/27 07:18:31;;;;;;;3.75;1.67;;;;;;;7.97;100.00;99441.78;6072559;23;20444;-76
2023/10/27 07:20:57;;;;;;;4.03;2.13;;;;;;;7.94;100.00;99435.94;6094545;23;20022;-77
2023/10/27 07:23:23;;;;;;;3.90;1.75;;;;;;;7.94;100.00;99446.59;6095509;23;20053;-76
2023/10/27 07:25:49;;;;;;;3.80;1.90;;;;;;;7.96;100.00;99442.84;6118414;23;20014;-75
2023/10/27 07:28:15;;;;;;;3.08;1.63;;;;;;;7.98;100.00;99443.34;6093341;23;20025;-76
2023/10/27 07:30:41;;;;;;;4.75;1.95;;;;;;;8.01;100.00;99453.47;6118353;23;20014;-75
2023/10/27 07:33:07;;;;;;;3.97;2.30;;;;;;;8.01;100.00;99448.13;6092907;23;20014;-74
2023/10/27 07:35:33;;;;;;;4.82;1.90;;;;;;;8.01;100.00;99440.94;6094313;23;20010;-78
2023/10/27 07:37:59;;;;;;;5.32;2.38;;;;;;;8.02;100.00;99447.84;6117719;23;20038;-73
2023/10/27 07:40:25;;;;;;;3.50;1.70;;;;;;;8.05;100.00;99447.25;6093264;23;20021;-72
2023/10/27 07:42:53;;;;;;;6.47;2.03;;;;;;;8.06;100.00;99437.38;6117281;23;20057;-78
2023/10/27 07:45:19;;;;;;;3.50;1.98;;;;;;;8.02;100.00;99441.72;6115962;23;20041;-73
2023/10/27 07:47:45;;;;;;;6.25;2.05;;;;;;;8.06;100.00;99442.72;6069237;23;20089;-75
2023/10/27 07:50:11;;;;;;;4.43;2.35;;;;;;;8.06;100.00;99440.88;6068357;23;20021;-75
2023/10/27 07:52:37;;;;;;;4.20;2.00;;;;;;;8.07;100.00;99436.34;6091178;23;20041;-76
2023/10/27 07:55:06;;;;;;;5.50;2.28;;;;;;;8.09;100.00;99437.63;6119842;23;20073;-78
2023/10/27 07:57:34;;;;;;;6.57;2.17;;;;;;;8.10;100.00;99433.09;6122075;23;20018;-75
2023/10/27 08:00:00;;;;;;;5.53;1.85;;;;;;;8.10;100.00;99438.41;6121629;23;20009;-75
2023/10/27 08:02:26;;;;;;;3.33;1.90;;;;;;;8.13;100.00;99436.00;6122956;23;20072;-73
2023/10/27 08:04:52;;;;;;;5.15;2.03;;;;;;;8.16;100.00;99431.94;6097408;23;20117;-73
2023/10/27 08:07:18;;;;;;;4.65;1.80;;;;;;;8.16;100.00;99437.28;6097053;23;20049;-75
2023/10/27 08:09:44;;;;;;;;;;;;;;;8.21;100.00;99439.91;6097201;23;20072;-74
2023/10/27 08:12:11;;;;;;;4.28;2.00;;;;;;;8.24;100.00;99439.31;6118539;23;20375;-77
2023/10/27 08:14:36;;;;;;;8.05;3.70;;;;;;;8.21;100.00;99423.91;6085264;23;20016;-78
2023/10/27 08:17:32;;;;;;;3.67;1.95;;;;;;;8.25;100.00;99435.56;6104539;23;20017;-79
2023/10/27 08:19:58;;;;;;;5.68;2.83;;;;;;;8.29;100.00;99430.47;6077088;23;20025;-76
2023/10/27 08:22:23;;;;;;;4.47;2.35;;;;;;;8.35;100.00;99440.81;6097330;23;20014;-79
2023/10/27 08:24:49;;;;;;;6.75;2.17;;;;;;;8.35;100.00;99445.31;6125603;23;20084;-77
2023/10/27 08:27:15;;;;;;;5.05;2.25;;;;;;;8.38;100.00;99442.91;6122177;23;20016;-74
2023/10/27 08:29:40;;;;;;;5.20;2.10;;;;;;;8.36;100.00;99446.94;6098072;23;20018;-75
2023/10/27 08:32:06;;;;;;;4.70;2.50;;;;;;;8.38;100.00;99445.56;6098084;23;20062;-78
2023/10/27 08:34:35;;;;;;;10.27;2.35;;;;;;;8.41;100.00;99449.56;6097919;23;20081;-74
2023/10/27 08:37:01;;;;;;;4.25;2.30;;;;;;;8.43;100.00;99452.72;6100431;23;20014;-78
2023/10/27 08:39:27;;;;;;;4.30;2.08;;;;;;;8.43;100.00;99444.72;6102631;23;20017;-77
2023/10/27 08:41:57;;;;;;;4.43;2.03;;;;;;;8.46;100.00;99452.94;6105721;23;20018;-79
2023/10/27 08:44:25;;;;;;;5.25;2.60;;;;;;;8.48;100.00;99456.13;6079151;23;20018;-80
2023/10/27 08:46:53;;;;;;;4.43;2.40;;;;;;;8.50;100.00;99455.81;6130980;23;20045;-78
2023/10/27 08:50:09;;;;;;;3.50;2.38;;;;;;;8.47;100.00;99453.75;6125338;23;20476;-79
2023/10/27 08:52:36;;;;;;;4.60;2.40;;;;;;;8.46;100.00;99447.59;6099042;23;20014;-78
2023/10/27 08:55:07;;;;;;;4.78;2.60;;;;;;;8.43;100.00;99445.50;6098913;23;20464;-76
2023/10/27 08:57:34;;;;;;;3.58;1.90;;;;;;;8.47;100.00;99446.53;6097737;23;20013;-77
2023/10/27 08:59:59;;;;;;;4.07;2.45;;;;;;;8.46;100.00;99444.91;6099119;23;20018;-74
2023/10/27 09:02:31;;;;;;;4.13;2.22;;;;;;;8.49;100.00;99443.56;6074762;23;20100;-75
2023/10/27 09:05:01;;;;;;;5.53;2.00;;;;;;;8.53;100.00;99447.22;6099174;23;20013;-76
2023/10/27 09:07:26;;;;;;;5.53;2.30;;;;;;;8.56;100.00;99443.22;6074544;23;20053;-77
2023/10/27 09:09:53;;;;;;;4.90;2.17;;;;;;;8.51;100.00;99449.41;6092253;23;20017;-77
2023/10/27 09:12:24;;;;;;;4.25;2.30;;;;;;;8.53;100.00;99449.13;6040197;23;20010;-74
2023/10/27 09:15:15;;;;;;;3.05;1.65;;;;;;;8.56;100.00;99451.22;6090879;23;20018;-78
2023/10/27 09:17:56;;;;;;;4.18;1.77;;;;;;;8.56;100.00;99445.88;6020363;23;20017;-76
2023/10/27 09:20:26;;;;;;;2.88;1.50;;;;;;;8.59;100.00;99451.44;6046651;23;20380;-75
2023/10/27 09:22:59;;;;;;;2.97;1.98;;;;;;;8.63;100.00;99454.34;6069715;23;20010;-78
2023/10/27 09:25:29;;;;;;;5.32;1.90;;;;;;;8.62;100.00;99456.22;6069198;23;20019;-78
2023/10/27 09:27:56;;;;;;;5.70;1.98;;;;;;;8.58;100.00;99449.06;6069384;23;20050;-75
2023/10/27 14:53:20;;;;;;;6.75;3.72;;;;;;;8.80;100.00;99445.81;6163406;23;20041;31
2023/10/27 14:55:46;;;;;;;5.30;3.30;;;;;;;8.80;100.00;99445.81;5942131;24;20463;-73
2023/10/27 14:58:11;;;;;;;7.68;3.60;;;;;;;8.82;100.00;99447.13;5948175;24;20031;-74
2023/10/27 15:00:37;;;;;;;8.25;4.07;;;;;;;8.83;100.00;99455.94;5972629;24;20016;-72
2023/10/27 15:03:03;;;;;;;8.25;4.43;;;;;;;8.82;100.00;99446.34;5943300;24;20024;-72
2023/10/27 15:05:28;;;;;;;6.47;3.35;;;;;;;8.83;100.00;99451.38;5942841;24;20021;-72
2023/10/27 15:07:54;;;;;;;8.68;4.15;;;;;;;8.80;100.00;99449.28;5920322;24;20024;-74
2023/10/27 15:10:23;;;;;;;7.50;3.83;;;;;;;8.83;100.00;99445.25;5944210;24;20087;-72
2023/10/27 15:12:48;;;;;;;6.90;3.65;;;;;;;8.83;100.00;99451.38;5920426;24;20016;-73
2023/10/27 15:15:14;;;;;;;9.25;4.88;;;;;;;8.82;100.00;99449.78;5875143;24;20027;-73
2023/10/27 15:17:40;;;;;;;8.68;4.50;;;;;;;8.81;100.00;99452.75;5919055;24;20076;-73
2023/10/27 15:20:06;;;;;;;6.82;3.90;;;;;;;8.81;100.00;99450.88;5919588;24;20617;-74
2023/10/27 15:22:32;;;;;;;8.23;4.55;;;;;;;8.79;100.00;99458.38;5943206;24;20024;-73
2023/10/27 15:24:58;;;;;;;8.80;4.60;;;;;;;8.78;100.00;99453.31;5943926;24;20013;-74
2023/10/27 15:27:23;;;;;;;6.55;4.03;;;;;;;8.78;100.00;99454.09;5943936;24;20024;-73
2023/10/27 15:29:49;;;;;;;7.32;4.45;;;;;;;8.78;100.00;99454.09;5921528;24;20021;-72
2023/10/27 15:32:15;;;;;;;9.27;4.28;;;;;;;8.75;100.00;99465.38;5920757;24;20019;-72
2023/10/27 15:34:41;;;;;;;9.13;4.75;;;;;;;8.74;100.00;99453.91;5920505;24;20452;-73
2023/10/27 15:37:08;;;;;;;8.45;4.53;;;;;;;8.75;100.00;99454.69;5942959;24;20502;-73
2023/10/27 15:39:33;;;;;;;8.02;4.80;;;;;;;8.74;100.00;99453.13;5897578;24;20020;-73
2023/10/27 15:41:59;;;;;;;5.32;3.40;;;;;;;8.77;100.00;99463.22;5920677;24;20025;-74
2023/10/27 15:44:25;;;;;;;8.15;3.92;;;;;;;8.78;100.00;99467.47;5942751;24;20012;-73
2023/10/27 15:46:51;;;;;;;8.55;3.85;;;;;;;8.77;100.00;99457.06;5945144;24;20013;-74
2023/10/27 15:49:17;;;;;;;5.95;3.60;;;;;;;8.75;100.00;99455.50;5920588;24;20024;-73
2023/10/27 15:51:43;;;;;;;6.75;3.80;;;;;;;8.74;100.00;99453.91;5919734;24;20439;-73
2023/10/27 15:54:08;;;;;;;7.35;3.70;;;;;;;8.72;100.00;99463.28;5941081;24;20025;-73
2023/10/27 15:56:34;;;;;;;7.65;3.58;;;;;;;8.71;100.00;99469.69;5943906;24;20027;-74
2023/10/27 15:59:02;;;;;;;6.35;3.60;;;;;;;8.71;100.00;99459.00;5921077;24;20017;-72
2023/10/27 16:01:28;;;;;;;6.35;3.92;;;;;;;8.71;100.00;99459.81;5895747;24;20049;-73
2023/10/27 16:03:54;;;;;;;8.73;4.10;;;;;;;8.69;100.00;99458.53;5943437;24;20024;-72
2023/10/27 16:06:20;;;;;;;6.93;3.97;;;;;;;8.67;100.00;99463.34;5918765;24;20069;-75
2023/10/27 16:08:46;;;;;;;;;;;;;;;8.66;100.00;99459.88;5895508;24;20027;-74
2023/10/27 16:11:12;;;;;;;5.00;3.00;;;;;;;8.65;100.00;99460.16;5919634;24;19915;-72
2023/10/27 16:13:39;;;;;;;6.05;3.65;;;;;;;8.66;100.00;99461.75;5921145;24;20087;-73
2023/10/27 16:16:06;;;;;;;4.57;3.25;;;;;;;8.65;100.00;99465.50;5897069;24;20023;-73
2023/10/27 16:18:32;;;;;;;4.97;3.38;;;;;;;8.64;100.00;99461.25;5920524;24;20041;-73
2023/10/27 16:20:57;;;;;;;6.68;2.92;;;;;;;8.61;100.00;99459.16;5920833;24;20021;-73
2023/10/27 16:23:23;;;;;;;4.22;2.83;;;;;;;8.59;100.00;99471.97;5920614;24;20450;-72
2023/10/27 16:25:48;;;;;;;4.55;2.63;;;;;;;8.58;100.00;99467.72;5873520;24;20024;-73
2023/10/27 16:28:14;;;;;;;3.30;2.20;;;;;;;8.57;100.00;99460.81;5945412;24;20016;-73
2023/10/27 16:30:40;;;;;;;4.03;3.03;;;;;;;8.56;100.00;99465.34;5942133;24;20024;-73
2023/10/27 16:33:06;;;;;;;4.30;2.78;;;;;;;8.56;100.00;99476.03;5942603;24;20048;-73
2023/10/27 16:35:35;;;;;;;5.85;3.13;;;;;;;8.55;100.00;99477.13;5918269;24;20016;-73
2023/10/27 16:38:02;;;;;;;5.45;2.00;;;;;;;8.55;100.00;99469.13;5920070;24;20016;-75
2023/10/27 16:40:28;;;;;;;4.75;2.40;;;;;;;8.55;100.00;99481.66;5944507;24;20016;-73
2023/10/27 16:42:55;;;;;;;3.78;2.58;;;;;;;8.56;100.00;99488.59;5942209;24;20341;-73
2023/10/27 16:45:21;;;;;;;4.60;2.97;;;;;;;8.58;100.00;99486.41;5918519;24;20055;-73
2023/10/27 16:47:46;;;;;;;5.55;2.50;;;;;;;8.55;100.00;99498.47;5942465;24;20772;-73
2023/10/27 16:50:12;;;;;;;3.80;2.60;;;;;;;8.54;100.00;99485.41;5943047;24;20020;-73
2023/10/27 16:52:38;;;;;;;4.68;3.03;;;;;;;8.54;100.00;99496.09;5893252;24;20080;-73
2023/10/27 16:55:08;;;;;;;5.38;2.78;;;;;;;8.52;100.00;99484.88;5911968;24;20169;-73
2023/10/27 16:57:33;;;;;;;5.88;2.50;;;;;;;8.52;100.00;99492.91;5912637;24;20029;-74